sensor_id;sensor_type;location;lat;lon;timestamp;temperature;humidity
6377;DHT22;3221;48.858;10.128;2023-02-13T00:00:18;2.70;99.90
6377;DHT22;3221;48.858;10.128;2023-02-13T00:02:45;2.60;99.90
6377;DHT22;3221;48.858;10.128;2023-02-13T00:05:12;2.60;99.90
6377;DHT22;3221;48.858;10.128;2023-02-13T00:07:39;2.50;99.90
6377;DHT22;3221;48.858;10.128;2023-02-13T00:10:07;2.50;99.90
6377;DHT22;3221;48.858;10.128;2023-02-13T00:12:34;2.40;99.90
6377;DHT22;3221;48.858;10.128;2023-02-13T00:15:01;2.40;99.90
6377;DHT22;3221;48.858;10.128;2023-02-13T00:17:28;2.30;99.90
6377;DHT22;3221;48.858;10.128;2023-02-13T00:19:55;2.30;99.90
6377;DHT22;3221;48.858;10.128;2023-02-13T00:22:21;2.20;99.90
6377;DHT22;3221;48.858;10.128;2023-02-13T00:24:48;2.20;99.90
6377;DHT22;3221;48.858;10.128;2023-02-13T00:27:15;2.10;99.90
6377;DHT22;3221;48.858;10.128;2023-02-13T00:29:42;2.10;99.90
6377;DHT22;3221;48.858;10.128;2023-02-13T00:32:09;2.10;99.90
6377;DHT22;3221;48.858;10.128;2023-02-13T00:34:36;2.10;99.90
6377;DHT22;3221;48.858;10.128;2023-02-13T00:37:03;2.10;99.90
6377;DHT22;3221;48.858;10.128;2023-02-13T00:39:29;2.10;99.90
6377;DHT22;3221;48.858;10.128;2023-02-13T00:41:56;2.10;99.90
6377;DHT22;3221;48.858;10.128;2023-02-13T00:44:23;2.10;99.90
6377;DHT22;3221;48.858;10.128;2023-02-13T00:46:50;2.00;99.90
6377;DHT22;3221;48.858;10.128;2023-02-13T00:49:16;2.00;99.90
6377;DHT22;3221;48.858;10.128;2023-02-13T00:51:43;2.00;99.90
6377;DHT22;3221;48.858;10.128;2023-02-13T00:54:10;2.00;99.90
6377;DHT22;3221;48.858;10.128;2023-02-13T00:56:37;2.00;99.90
6377;DHT22;3221;48.858;10.128;2023-02-13T00:59:04;2.00;99.90
6377;DHT22;3221;48.858;10.128;2023-02-13T01:01:31;2.00;99.90
6377;DHT22;3221;48.858;10.128;2023-02-13T01:03:58;2.00;99.90
6377;DHT22;3221;48.858;10.128;2023-02-13T01:06:26;2.00;99.90
6377;DHT22;3221;48.858;10.128;2023-02-13T01:08:53;2.00;99.90
6377;DHT22;3221;48.858;10.128;2023-02-13T01:11:20;2.00;99.90
6377;DHT22;3221;48.858;10.128;2023-02-13T01:13:47;2.00;99.90
6377;DHT22;3221;48.858;10.128;2023-02-13T01:16:14;2.00;99.90
6377;DHT22;3221;48.858;10.128;2023-02-13T01:18:43;2.00;99.90
6377;DHT22;3221;48.858;10.128;2023-02-13T01:21:16;1.90;99.90
6377;DHT22;3221;48.858;10.128;2023-02-13T01:23:44;1.90;99.90
6377;DHT22;3221;48.858;10.128;2023-02-13T01:26:20;1.90;99.90
6377;DHT22;3221;48.858;10.128;2023-02-13T01:28:52;1.90;99.90
6377;DHT22;3221;48.858;10.128;2023-02-13T01:31:20;1.90;99.90
6377;DHT22;3221;48.858;10.128;2023-02-13T01:33:49;1.90;99.90
6377;DHT22;3221;48.858;10.128;2023-02-13T01:36:20;1.90;99.90
6377;DHT22;3221;48.858;10.128;2023-02-13T01:38:46;1.80;99.90
6377;DHT22;3221;48.858;10.128;2023-02-13T01:41:13;1.80;99.90
6377;DHT22;3221;48.858;10.128;2023-02-13T01:43:57;1.80;99.90
6377;DHT22;3221;48.858;10.128;2023-02-13T01:46:40;1.70;99.90
6377;DHT22;3221;48.858;10.128;2023-02-13T01:49:16;1.70;99.90
6377;DHT22;3221;48.858;10.128;2023-02-13T01:51:45;1.70;99.90
6377;DHT22;3221;48.858;10.128;2023-02-13T01:54:16;1.70;99.90
6377;DHT22;3221;48.858;10.128;2023-02-13T01:56:57;1.70;99.90
6377;DHT22;3221;48.858;10.128;2023-02-13T01:59:28;1.70;99.90
6377;DHT22;3221;48.858;10.128;2023-02-13T02:01:57;1.70;99.90
6377;DHT22;3221;48.858;10.128;2023-02-13T02:04:30;1.70;99.90
6377;DHT22;3221;48.858;10.128;2023-02-13T02:07:07;1.70;99.90
6377;DHT22;3221;48.858;10.128;2023-02-13T02:09:40;1.70;99.90
6377;DHT22;3221;48.858;10.128;2023-02-13T02:12:13;1.70;99.90
6377;DHT22;3221;48.858;10.128;2023-02-13T02:14:43;1.70;99.90
6377;DHT22;3221;48.858;10.128;2023-02-13T02:17:11;1.70;99.90
6377;DHT22;3221;48.858;10.128;2023-02-13T02:29:06;1.80;99.90
6377;DHT22;3221;48.858;10.128;2023-02-13T02:32:14;1.80;99.90
6377;DHT22;3221;48.858;10.128;2023-02-13T02:46:40;1.80;99.90
6377;DHT22;3221;48.858;10.128;2023-02-13T02:49:33;1.80;99.90
6377;DHT22;3221;48.858;10.128;2023-02-13T02:52:30;1.80;99.90
6377;DHT22;3221;48.858;10.128;2023-02-13T03:00:48;1.90;99.90
6377;DHT22;3221;48.858;10.128;2023-02-13T03:03:35;1.90;99.90
6377;DHT22;3221;48.858;10.128;2023-02-13T03:06:25;1.90;99.90
6377;DHT22;3221;48.858;10.128;2023-02-13T03:08:59;1.90;99.90
6377;DHT22;3221;48.858;10.128;2023-02-13T03:11:48;1.90;99.90
6377;DHT22;3221;48.858;10.128;2023-02-13T03:14:34;1.90;99.90
6377;DHT22;3221;48.858;10.128;2023-02-13T03:17:02;1.80;99.90
6377;DHT22;3221;48.858;10.128;2023-02-13T03:20:06;2.00;99.90
6377;DHT22;3221;48.858;10.128;2023-02-13T03:23:29;1.80;99.90
6377;DHT22;3221;48.858;10.128;2023-02-13T03:28:50;1.80;99.90
6377;DHT22;3221;48.858;10.128;2023-02-13T03:31:52;1.70;99.90
6377;DHT22;3221;48.858;10.128;2023-02-13T03:34:31;1.70;99.90
6377;DHT22;3221;48.858;10.128;2023-02-13T03:37:27;1.70;99.90
6377;DHT22;3221;48.858;10.128;2023-02-13T03:40:38;1.60;99.90
6377;DHT22;3221;48.858;10.128;2023-02-13T03:43:31;1.60;99.90
6377;DHT22;3221;48.858;10.128;2023-02-13T03:46:01;1.60;99.90
6377;DHT22;3221;48.858;10.128;2023-02-13T03:48:33;1.60;99.90
6377;DHT22;3221;48.858;10.128;2023-02-13T03:51:28;1.60;99.90
6377;DHT22;3221;48.858;10.128;2023-02-13T03:54:01;1.50;99.90
6377;DHT22;3221;48.858;10.128;2023-02-13T03:56:31;1.50;99.90
6377;DHT22;3221;48.858;10.128;2023-02-13T03:59:29;1.50;99.90
6377;DHT22;3221;48.858;10.128;2023-02-13T04:02:02;1.50;99.90
6377;DHT22;3221;48.858;10.128;2023-02-13T04:04:54;1.50;99.90
6377;DHT22;3221;48.858;10.128;2023-02-13T04:07:24;1.50;99.90
6377;DHT22;3221;48.858;10.128;2023-02-13T04:10:10;1.40;99.90
6377;DHT22;3221;48.858;10.128;2023-02-13T04:15:42;1.40;99.90
6377;DHT22;3221;48.858;10.128;2023-02-13T04:18:12;1.40;99.90
6377;DHT22;3221;48.858;10.128;2023-02-13T04:20:39;1.30;99.90
6377;DHT22;3221;48.858;10.128;2023-02-13T04:23:07;1.30;99.90
6377;DHT22;3221;48.858;10.128;2023-02-13T04:25:37;1.40;99.90
6377;DHT22;3221;48.858;10.128;2023-02-13T04:28:05;1.30;99.90
6377;DHT22;3221;48.858;10.128;2023-02-13T04:30:32;1.30;99.90
6377;DHT22;3221;48.858;10.128;2023-02-13T04:32:59;1.30;99.90
6377;DHT22;3221;48.858;10.128;2023-02-13T04:35:25;1.20;99.90
6377;DHT22;3221;48.858;10.128;2023-02-13T04:37:52;1.20;99.90
6377;DHT22;3221;48.858;10.128;2023-02-13T04:40:20;1.20;99.90
6377;DHT22;3221;48.858;10.128;2023-02-13T04:42:48;1.20;99.90
6377;DHT22;3221;48.858;10.128;2023-02-13T04:45:15;1.20;99.90
6377;DHT22;3221;48.858;10.128;2023-02-13T04:47:42;1.20;99.90
6377;DHT22;3221;48.858;10.128;2023-02-13T04:50:09;1.20;99.90
6377;DHT22;3221;48.858;10.128;2023-02-13T04:52:36;1.20;99.90
6377;DHT22;3221;48.858;10.128;2023-02-13T04:55:02;1.10;99.90
6377;DHT22;3221;48.858;10.128;2023-02-13T04:57:29;1.20;99.90
6377;DHT22;3221;48.858;10.128;2023-02-13T04:59:56;1.20;99.90
6377;DHT22;3221;48.858;10.128;2023-02-13T05:02:23;1.20;99.90
6377;DHT22;3221;48.858;10.128;2023-02-13T05:04:50;1.20;99.90
6377;DHT22;3221;48.858;10.128;2023-02-13T05:07:16;1.10;99.90
6377;DHT22;3221;48.858;10.128;2023-02-13T05:09:43;1.10;99.90
6377;DHT22;3221;48.858;10.128;2023-02-13T05:12:10;1.10;99.90
6377;DHT22;3221;48.858;10.128;2023-02-13T05:14:37;1.10;99.90
6377;DHT22;3221;48.858;10.128;2023-02-13T05:17:03;1.00;99.90
6377;DHT22;3221;48.858;10.128;2023-02-13T05:19:30;1.00;99.90
6377;DHT22;3221;48.858;10.128;2023-02-13T05:21:57;1.00;99.90
6377;DHT22;3221;48.858;10.128;2023-02-13T05:24:42;1.00;99.90
6377;DHT22;3221;48.858;10.128;2023-02-13T05:27:09;1.00;99.90
6377;DHT22;3221;48.858;10.128;2023-02-13T05:29:36;1.00;99.90
6377;DHT22;3221;48.858;10.128;2023-02-13T05:32:02;1.00;99.90
6377;DHT22;3221;48.858;10.128;2023-02-13T05:34:29;0.90;99.90
6377;DHT22;3221;48.858;10.128;2023-02-13T05:36:56;0.90;99.90
6377;DHT22;3221;48.858;10.128;2023-02-13T05:39:23;0.90;99.90
6377;DHT22;3221;48.858;10.128;2023-02-13T05:41:50;0.90;99.90
6377;DHT22;3221;48.858;10.128;2023-02-13T05:44:17;0.90;99.90
6377;DHT22;3221;48.858;10.128;2023-02-13T05:46:44;0.90;99.90
6377;DHT22;3221;48.858;10.128;2023-02-13T05:49:12;1.00;99.90
6377;DHT22;3221;48.858;10.128;2023-02-13T05:51:40;0.90;99.90
6377;DHT22;3221;48.858;10.128;2023-02-13T05:54:08;0.90;99.90
6377;DHT22;3221;48.858;10.128;2023-02-13T05:56:34;0.90;99.90
6377;DHT22;3221;48.858;10.128;2023-02-13T05:59:01;0.90;99.90
6377;DHT22;3221;48.858;10.128;2023-02-13T06:01:28;0.90;99.90
6377;DHT22;3221;48.858;10.128;2023-02-13T06:03:55;0.90;99.90
6377;DHT22;3221;48.858;10.128;2023-02-13T06:06:24;0.80;99.90
6377;DHT22;3221;48.858;10.128;2023-02-13T06:08:51;0.90;99.90
6377;DHT22;3221;48.858;10.128;2023-02-13T06:11:19;0.80;99.90
6377;DHT22;3221;48.858;10.128;2023-02-13T06:13:46;0.80;99.90
6377;DHT22;3221;48.858;10.128;2023-02-13T06:16:12;0.80;99.90
6377;DHT22;3221;48.858;10.128;2023-02-13T06:18:39;0.90;99.90
6377;DHT22;3221;48.858;10.128;2023-02-13T06:21:07;0.90;99.90
6377;DHT22;3221;48.858;10.128;2023-02-13T06:23:34;0.90;99.90
6377;DHT22;3221;48.858;10.128;2023-02-13T06:26:05;1.00;99.90
6377;DHT22;3221;48.858;10.128;2023-02-13T06:28:33;1.00;99.90
6377;DHT22;3221;48.858;10.128;2023-02-13T06:31:00;1.00;99.90
6377;DHT22;3221;48.858;10.128;2023-02-13T06:33:28;1.00;99.90
6377;DHT22;3221;48.858;10.128;2023-02-13T06:35:54;1.00;99.90
6377;DHT22;3221;48.858;10.128;2023-02-13T06:38:21;1.00;99.90
6377;DHT22;3221;48.858;10.128;2023-02-13T06:40:50;1.00;99.90
6377;DHT22;3221;48.858;10.128;2023-02-13T06:43:17;1.10;99.90
6377;DHT22;3221;48.858;10.128;2023-02-13T06:45:44;1.10;99.90
6377;DHT22;3221;48.858;10.128;2023-02-13T06:48:13;1.10;99.90
6377;DHT22;3221;48.858;10.128;2023-02-13T06:50:40;1.10;99.90
6377;DHT22;3221;48.858;10.128;2023-02-13T06:53:07;1.10;99.90
6377;DHT22;3221;48.858;10.128;2023-02-13T06:55:34;1.00;99.90
6377;DHT22;3221;48.858;10.128;2023-02-13T06:58:01;1.10;99.90
6377;DHT22;3221;48.858;10.128;2023-02-13T07:00:28;1.20;99.90
6377;DHT22;3221;48.858;10.128;2023-02-13T07:03:00;1.10;99.90
6377;DHT22;3221;48.858;10.128;2023-02-13T07:05:27;1.00;99.90
6377;DHT22;3221;48.858;10.128;2023-02-13T07:07:54;1.00;99.90
6377;DHT22;3221;48.858;10.128;2023-02-13T07:10:21;0.90;99.90
6377;DHT22;3221;48.858;10.128;2023-02-13T07:12:48;0.90;99.90
6377;DHT22;3221;48.858;10.128;2023-02-13T07:15:31;1.00;99.90
6377;DHT22;3221;48.858;10.128;2023-02-13T07:17:58;1.00;99.90
6377;DHT22;3221;48.858;10.128;2023-02-13T07:20:26;0.90;99.90
6377;DHT22;3221;48.858;10.128;2023-02-13T07:22:57;0.80;99.90
6377;DHT22;3221;48.858;10.128;2023-02-13T07:25:25;0.80;99.90
6377;DHT22;3221;48.858;10.128;2023-02-13T07:27:52;0.80;99.90
6377;DHT22;3221;48.858;10.128;2023-02-13T07:30:18;0.80;99.90
6377;DHT22;3221;48.858;10.128;2023-02-13T07:32:45;0.70;99.90
6377;DHT22;3221;48.858;10.128;2023-02-13T07:35:12;0.70;99.90
6377;DHT22;3221;48.858;10.128;2023-02-13T07:37:39;0.70;99.90
6377;DHT22;3221;48.858;10.128;2023-02-13T07:40:06;0.80;99.90
6377;DHT22;3221;48.858;10.128;2023-02-13T07:42:33;0.90;99.90
6377;DHT22;3221;48.858;10.128;2023-02-13T07:45:00;1.00;99.90
6377;DHT22;3221;48.858;10.128;2023-02-13T07:47:27;1.10;99.90
6377;DHT22;3221;48.858;10.128;2023-02-13T07:49:54;1.10;99.90
6377;DHT22;3221;48.858;10.128;2023-02-13T07:52:20;1.20;99.90
6377;DHT22;3221;48.858;10.128;2023-02-13T07:54:47;1.30;99.90
6377;DHT22;3221;48.858;10.128;2023-02-13T07:57:15;1.40;99.90
6377;DHT22;3221;48.858;10.128;2023-02-13T07:59:42;1.40;99.90
6377;DHT22;3221;48.858;10.128;2023-02-13T08:02:13;1.50;99.90
6377;DHT22;3221;48.858;10.128;2023-02-13T08:04:41;1.50;99.90
6377;DHT22;3221;48.858;10.128;2023-02-13T08:07:13;1.60;99.90
6377;DHT22;3221;48.858;10.128;2023-02-13T08:09:40;1.70;99.90
6377;DHT22;3221;48.858;10.128;2023-02-13T08:12:25;1.70;99.90
6377;DHT22;3221;48.858;10.128;2023-02-13T08:14:52;1.70;99.90
6377;DHT22;3221;48.858;10.128;2023-02-13T08:17:19;1.80;99.90
6377;DHT22;3221;48.858;10.128;2023-02-13T08:19:46;1.90;99.90
6377;DHT22;3221;48.858;10.128;2023-02-13T08:22:13;1.90;99.90
6377;DHT22;3221;48.858;10.128;2023-02-13T08:24:39;2.00;99.90
6377;DHT22;3221;48.858;10.128;2023-02-13T08:27:08;2.10;99.90
6377;DHT22;3221;48.858;10.128;2023-02-13T08:29:36;2.20;99.90
6377;DHT22;3221;48.858;10.128;2023-02-13T08:32:03;2.20;99.90
6377;DHT22;3221;48.858;10.128;2023-02-13T08:34:30;2.30;99.90
6377;DHT22;3221;48.858;10.128;2023-02-13T08:36:57;2.30;99.90
6377;DHT22;3221;48.858;10.128;2023-02-13T08:39:23;2.40;99.90
6377;DHT22;3221;48.858;10.128;2023-02-13T08:41:50;2.40;99.90
6377;DHT22;3221;48.858;10.128;2023-02-13T08:44:17;2.50;99.90
6377;DHT22;3221;48.858;10.128;2023-02-13T08:46:44;2.60;99.90
6377;DHT22;3221;48.858;10.128;2023-02-13T08:49:10;2.60;99.90
6377;DHT22;3221;48.858;10.128;2023-02-13T08:51:37;2.70;99.90
6377;DHT22;3221;48.858;10.128;2023-02-13T08:54:04;2.70;99.90
6377;DHT22;3221;48.858;10.128;2023-02-13T08:56:31;3.00;99.90
6377;DHT22;3221;48.858;10.128;2023-02-13T08:58:58;2.90;99.90
6377;DHT22;3221;48.858;10.128;2023-02-13T09:01:24;2.90;99.90
6377;DHT22;3221;48.858;10.128;2023-02-13T09:03:51;3.00;99.90
6377;DHT22;3221;48.858;10.128;2023-02-13T09:06:18;3.10;99.90
6377;DHT22;3221;48.858;10.128;2023-02-13T09:08:45;3.10;99.90
6377;DHT22;3221;48.858;10.128;2023-02-13T09:11:12;3.20;99.90
6377;DHT22;3221;48.858;10.128;2023-02-13T09:13:39;3.20;99.90
6377;DHT22;3221;48.858;10.128;2023-02-13T09:16:07;3.30;99.90
6377;DHT22;3221;48.858;10.128;2023-02-13T09:18:34;3.30;99.90
6377;DHT22;3221;48.858;10.128;2023-02-13T09:21:03;3.50;99.90
6377;DHT22;3221;48.858;10.128;2023-02-13T09:23:32;3.50;99.90
6377;DHT22;3221;48.858;10.128;2023-02-13T09:26:04;3.50;99.90
6377;DHT22;3221;48.858;10.128;2023-02-13T09:28:32;3.50;99.90
6377;DHT22;3221;48.858;10.128;2023-02-13T09:31:11;3.50;99.90
6377;DHT22;3221;48.858;10.128;2023-02-13T09:33:38;3.50;99.90
6377;DHT22;3221;48.858;10.128;2023-02-13T09:36:17;3.60;99.90
6377;DHT22;3221;48.858;10.128;2023-02-13T09:38:50;3.60;99.90
6377;DHT22;3221;48.858;10.128;2023-02-13T09:41:22;3.70;99.90
6377;DHT22;3221;48.858;10.128;2023-02-13T09:43:56;3.70;99.90
6377;DHT22;3221;48.858;10.128;2023-02-13T09:46:35;3.70;99.90
6377;DHT22;3221;48.858;10.128;2023-02-13T09:49:14;3.70;99.90
6377;DHT22;3221;48.858;10.128;2023-02-13T09:51:43;3.90;99.90
6377;DHT22;3221;48.858;10.128;2023-02-13T09:54:15;3.90;99.90
6377;DHT22;3221;48.858;10.128;2023-02-13T09:57:02;3.90;99.90
6377;DHT22;3221;48.858;10.128;2023-02-13T10:02:49;4.00;99.90
6377;DHT22;3221;48.858;10.128;2023-02-13T10:08:39;4.00;99.90
6377;DHT22;3221;48.858;10.128;2023-02-13T10:16:40;4.10;99.90
6377;DHT22;3221;48.858;10.128;2023-02-13T10:19:25;4.20;99.90
6377;DHT22;3221;48.858;10.128;2023-02-13T10:22:04;4.20;99.90
6377;DHT22;3221;48.858;10.128;2023-02-13T10:24:39;4.20;99.90
6377;DHT22;3221;48.858;10.128;2023-02-13T10:27:31;4.10;99.90
6377;DHT22;3221;48.858;10.128;2023-02-13T10:33:33;4.20;99.90
6377;DHT22;3221;48.858;10.128;2023-02-13T10:38:33;4.20;99.90
6377;DHT22;3221;48.858;10.128;2023-02-13T10:41:24;4.30;99.90
6377;DHT22;3221;48.858;10.128;2023-02-13T11:04:07;4.50;99.90
6377;DHT22;3221;48.858;10.128;2023-02-13T11:06:36;4.60;99.90
6377;DHT22;3221;48.858;10.128;2023-02-13T11:09:05;4.60;99.90
6377;DHT22;3221;48.858;10.128;2023-02-13T11:11:36;4.80;99.90
6377;DHT22;3221;48.858;10.128;2023-02-13T11:14:24;4.90;99.90
6377;DHT22;3221;48.858;10.128;2023-02-13T11:16:55;4.90;99.90
6377;DHT22;3221;48.858;10.128;2023-02-13T11:22:07;4.90;99.90
6377;DHT22;3221;48.858;10.128;2023-02-13T11:24:35;5.00;99.90
6377;DHT22;3221;48.858;10.128;2023-02-13T11:27:05;5.00;99.90
6377;DHT22;3221;48.858;10.128;2023-02-13T11:29:36;5.20;99.90
6377;DHT22;3221;48.858;10.128;2023-02-13T11:32:25;5.20;99.90
6377;DHT22;3221;48.858;10.128;2023-02-13T11:34:52;5.30;99.90
6377;DHT22;3221;48.858;10.128;2023-02-13T11:37:27;5.30;99.90
6377;DHT22;3221;48.858;10.128;2023-02-13T11:39:59;5.40;99.90
6377;DHT22;3221;48.858;10.128;2023-02-13T11:45:22;5.30;99.90
6377;DHT22;3221;48.858;10.128;2023-02-13T11:47:50;5.30;99.90
6377;DHT22;3221;48.858;10.128;2023-02-13T11:50:32;5.20;99.90
6377;DHT22;3221;48.858;10.128;2023-02-13T11:55:35;5.20;99.90
6377;DHT22;3221;48.858;10.128;2023-02-13T11:58:22;5.20;99.90
6377;DHT22;3221;48.858;10.128;2023-02-13T12:04:17;5.20;99.90
6377;DHT22;3221;48.858;10.128;2023-02-13T12:07:02;5.30;99.90
6377;DHT22;3221;48.858;10.128;2023-02-13T12:09:30;5.20;99.90
6377;DHT22;3221;48.858;10.128;2023-02-13T12:11:59;5.30;99.90
6377;DHT22;3221;48.858;10.128;2023-02-13T12:14:46;5.30;99.90
6377;DHT22;3221;48.858;10.128;2023-02-13T12:17:23;5.20;99.90
6377;DHT22;3221;48.858;10.128;2023-02-13T12:19:58;5.30;99.90
6377;DHT22;3221;48.858;10.128;2023-02-13T12:28:14;5.30;99.90
6377;DHT22;3221;48.858;10.128;2023-02-13T12:30:54;5.50;99.90
6377;DHT22;3221;48.858;10.128;2023-02-13T12:33:40;5.50;99.90
6377;DHT22;3221;48.858;10.128;2023-02-13T12:39:16;5.60;99.90
6377;DHT22;3221;48.858;10.128;2023-02-13T12:48:10;5.70;99.90
6377;DHT22;3221;48.858;10.128;2023-02-13T12:58:29;5.60;99.90
6377;DHT22;3221;48.858;10.128;2023-02-13T13:01:06;5.60;99.90
6377;DHT22;3221;48.858;10.128;2023-02-13T13:23:31;5.70;99.90
6377;DHT22;3221;48.858;10.128;2023-02-13T13:26:13;5.70;99.90
6377;DHT22;3221;48.858;10.128;2023-02-13T13:28:44;5.80;99.90
6377;DHT22;3221;48.858;10.128;2023-02-13T13:31:13;5.80;99.90
6377;DHT22;3221;48.858;10.128;2023-02-13T13:33:44;5.90;99.90
6377;DHT22;3221;48.858;10.128;2023-02-13T13:36:47;5.90;99.90
6377;DHT22;3221;48.858;10.128;2023-02-13T13:39:30;5.80;99.90
6377;DHT22;3221;48.858;10.128;2023-02-13T13:45:23;5.70;99.90
6377;DHT22;3221;48.858;10.128;2023-02-13T13:48:18;5.50;99.90
6377;DHT22;3221;48.858;10.128;2023-02-13T13:50:46;5.50;99.90
6377;DHT22;3221;48.858;10.128;2023-02-13T13:53:18;5.50;99.90
6377;DHT22;3221;48.858;10.128;2023-02-13T14:03:42;5.40;99.90
6377;DHT22;3221;48.858;10.128;2023-02-13T14:06:15;5.40;99.90
6377;DHT22;3221;48.858;10.128;2023-02-13T14:11:41;5.30;99.90
6377;DHT22;3221;48.858;10.128;2023-02-13T14:17:03;5.30;99.90
6377;DHT22;3221;48.858;10.128;2023-02-13T14:19:36;5.30;99.90
6377;DHT22;3221;48.858;10.128;2023-02-13T14:22:26;5.20;99.90
6377;DHT22;3221;48.858;10.128;2023-02-13T14:24:59;5.20;99.90
6377;DHT22;3221;48.858;10.128;2023-02-13T14:27:30;5.20;99.90
6377;DHT22;3221;48.858;10.128;2023-02-13T14:29:58;5.10;99.90
6377;DHT22;3221;48.858;10.128;2023-02-13T14:32:36;5.10;99.90
6377;DHT22;3221;48.858;10.128;2023-02-13T14:37:54;5.00;99.90
6377;DHT22;3221;48.858;10.128;2023-02-13T14:43:29;4.90;99.90
6377;DHT22;3221;48.858;10.128;2023-02-13T14:48:58;4.90;99.90
6377;DHT22;3221;48.858;10.128;2023-02-13T14:51:44;4.90;99.90
6377;DHT22;3221;48.858;10.128;2023-02-13T14:54:27;4.90;99.90
6377;DHT22;3221;48.858;10.128;2023-02-13T14:57:04;4.90;99.90
6377;DHT22;3221;48.858;10.128;2023-02-13T14:59:35;4.90;99.90
6377;DHT22;3221;48.858;10.128;2023-02-13T15:02:22;5.00;99.90
6377;DHT22;3221;48.858;10.128;2023-02-13T15:04:57;4.90;99.90
6377;DHT22;3221;48.858;10.128;2023-02-13T15:07:29;4.90;99.90
6377;DHT22;3221;48.858;10.128;2023-02-13T15:10:04;4.80;99.90
6377;DHT22;3221;48.858;10.128;2023-02-13T15:12:36;4.70;99.90
6377;DHT22;3221;48.858;10.128;2023-02-13T15:15:25;4.70;99.90
6377;DHT22;3221;48.858;10.128;2023-02-13T15:17:58;4.60;99.90
6377;DHT22;3221;48.858;10.128;2023-02-13T15:20:27;4.50;99.90
6377;DHT22;3221;48.858;10.128;2023-02-13T15:22:56;4.40;99.90
6377;DHT22;3221;48.858;10.128;2023-02-13T15:25:37;4.30;99.90
6377;DHT22;3221;48.858;10.128;2023-02-13T15:28:06;4.20;99.90
6377;DHT22;3221;48.858;10.128;2023-02-13T15:30:35;4.10;99.90
6377;DHT22;3221;48.858;10.128;2023-02-13T15:33:18;4.00;99.90
6377;DHT22;3221;48.858;10.128;2023-02-13T15:35:45;4.00;99.90
6377;DHT22;3221;48.858;10.128;2023-02-13T15:38:33;4.00;99.90
6377;DHT22;3221;48.858;10.128;2023-02-13T15:41:11;3.90;99.90
6377;DHT22;3221;48.858;10.128;2023-02-13T15:43:42;3.80;99.90
6377;DHT22;3221;48.858;10.128;2023-02-13T15:46:19;3.80;99.90
6377;DHT22;3221;48.858;10.128;2023-02-13T15:48:47;3.70;99.90
6377;DHT22;3221;48.858;10.128;2023-02-13T15:51:19;3.80;99.90
6377;DHT22;3221;48.858;10.128;2023-02-13T15:53:54;3.80;99.90
6377;DHT22;3221;48.858;10.128;2023-02-13T15:56:22;3.70;99.90
6377;DHT22;3221;48.858;10.128;2023-02-13T15:58:50;3.70;99.90
6377;DHT22;3221;48.858;10.128;2023-02-13T16:01:18;3.70;99.90
6377;DHT22;3221;48.858;10.128;2023-02-13T16:03:48;3.60;99.90
6377;DHT22;3221;48.858;10.128;2023-02-13T16:06:18;3.50;99.90
6377;DHT22;3221;48.858;10.128;2023-02-13T16:08:55;3.50;99.90
6377;DHT22;3221;48.858;10.128;2023-02-13T16:11:35;3.50;99.90
6377;DHT22;3221;48.858;10.128;2023-02-13T16:17:05;3.40;99.90
6377;DHT22;3221;48.858;10.128;2023-02-13T16:22:06;3.40;99.90
6377;DHT22;3221;48.858;10.128;2023-02-13T16:24:45;3.50;99.90
6377;DHT22;3221;48.858;10.128;2023-02-13T16:27:14;3.50;99.90
6377;DHT22;3221;48.858;10.128;2023-02-13T16:29:55;3.50;99.90
6377;DHT22;3221;48.858;10.128;2023-02-13T16:32:33;3.50;99.90
6377;DHT22;3221;48.858;10.128;2023-02-13T16:35:29;3.30;99.90
6377;DHT22;3221;48.858;10.128;2023-02-13T16:37:58;3.30;99.90
6377;DHT22;3221;48.858;10.128;2023-02-13T16:48:46;3.10;99.90
6377;DHT22;3221;48.858;10.128;2023-02-13T16:51:14;3.00;99.90
6377;DHT22;3221;48.858;10.128;2023-02-13T16:53:42;2.90;99.90
6377;DHT22;3221;48.858;10.128;2023-02-13T16:56:10;2.80;99.90
6377;DHT22;3221;48.858;10.128;2023-02-13T16:58:37;2.80;99.90
6377;DHT22;3221;48.858;10.128;2023-02-13T17:01:04;2.70;99.90
6377;DHT22;3221;48.858;10.128;2023-02-13T17:03:31;2.70;99.90
6377;DHT22;3221;48.858;10.128;2023-02-13T17:06:00;2.60;99.90
6377;DHT22;3221;48.858;10.128;2023-02-13T17:08:29;2.50;99.90
6377;DHT22;3221;48.858;10.128;2023-02-13T17:11:06;2.60;99.90
6377;DHT22;3221;48.858;10.128;2023-02-13T17:13:33;2.50;99.90
6377;DHT22;3221;48.858;10.128;2023-02-13T17:16:00;2.50;99.90
6377;DHT22;3221;48.858;10.128;2023-02-13T17:18:27;2.50;99.90
6377;DHT22;3221;48.858;10.128;2023-02-13T17:20:54;2.50;99.90
6377;DHT22;3221;48.858;10.128;2023-02-13T17:23:22;2.40;99.90
6377;DHT22;3221;48.858;10.128;2023-02-13T17:25:51;2.40;99.90
6377;DHT22;3221;48.858;10.128;2023-02-13T17:28:24;2.30;99.90
6377;DHT22;3221;48.858;10.128;2023-02-13T17:30:53;2.20;99.90
6377;DHT22;3221;48.858;10.128;2023-02-13T17:33:24;2.20;99.90
6377;DHT22;3221;48.858;10.128;2023-02-13T17:35:51;2.20;99.90
6377;DHT22;3221;48.858;10.128;2023-02-13T17:38:18;2.20;99.90
6377;DHT22;3221;48.858;10.128;2023-02-13T17:40:45;2.20;99.90
6377;DHT22;3221;48.858;10.128;2023-02-13T17:43:14;2.20;99.90
6377;DHT22;3221;48.858;10.128;2023-02-13T17:45:42;2.10;99.90
6377;DHT22;3221;48.858;10.128;2023-02-13T17:48:09;2.10;99.90
6377;DHT22;3221;48.858;10.128;2023-02-13T17:50:36;2.20;99.90
6377;DHT22;3221;48.858;10.128;2023-02-13T17:53:05;2.20;99.90
6377;DHT22;3221;48.858;10.128;2023-02-13T17:55:33;2.20;99.90
6377;DHT22;3221;48.858;10.128;2023-02-13T17:58:00;2.10;99.90
6377;DHT22;3221;48.858;10.128;2023-02-13T18:00:30;2.00;99.90
6377;DHT22;3221;48.858;10.128;2023-02-13T18:02:59;1.90;99.90
6377;DHT22;3221;48.858;10.128;2023-02-13T18:05:26;2.00;99.90
6377;DHT22;3221;48.858;10.128;2023-02-13T18:07:53;1.90;99.90
6377;DHT22;3221;48.858;10.128;2023-02-13T18:10:24;1.90;99.90
6377;DHT22;3221;48.858;10.128;2023-02-13T18:12:52;1.90;99.90
6377;DHT22;3221;48.858;10.128;2023-02-13T18:15:19;1.90;99.90
6377;DHT22;3221;48.858;10.128;2023-02-13T18:17:50;1.80;99.90
6377;DHT22;3221;48.858;10.128;2023-02-13T18:20:19;1.90;99.90
6377;DHT22;3221;48.858;10.128;2023-02-13T18:22:49;2.00;99.90
6377;DHT22;3221;48.858;10.128;2023-02-13T18:25:19;2.00;99.90
6377;DHT22;3221;48.858;10.128;2023-02-13T18:27:46;2.00;99.90
6377;DHT22;3221;48.858;10.128;2023-02-13T18:30:16;2.00;99.90
6377;DHT22;3221;48.858;10.128;2023-02-13T18:32:44;2.00;99.90
6377;DHT22;3221;48.858;10.128;2023-02-13T18:35:10;2.00;99.90
6377;DHT22;3221;48.858;10.128;2023-02-13T18:37:37;2.00;99.90
6377;DHT22;3221;48.858;10.128;2023-02-13T18:40:08;2.00;99.90
6377;DHT22;3221;48.858;10.128;2023-02-13T18:42:35;1.90;99.90
6377;DHT22;3221;48.858;10.128;2023-02-13T18:45:03;2.00;99.90
6377;DHT22;3221;48.858;10.128;2023-02-13T18:47:30;2.00;99.90
6377;DHT22;3221;48.858;10.128;2023-02-13T18:49:56;2.00;99.90
6377;DHT22;3221;48.858;10.128;2023-02-13T18:52:23;2.00;99.90
6377;DHT22;3221;48.858;10.128;2023-02-13T18:54:50;1.90;99.90
6377;DHT22;3221;48.858;10.128;2023-02-13T18:57:17;1.80;99.90
6377;DHT22;3221;48.858;10.128;2023-02-13T18:59:44;1.80;99.90
6377;DHT22;3221;48.858;10.128;2023-02-13T19:02:11;1.70;99.90
6377;DHT22;3221;48.858;10.128;2023-02-13T19:04:37;1.70;99.90
6377;DHT22;3221;48.858;10.128;2023-02-13T19:07:04;1.90;99.90
6377;DHT22;3221;48.858;10.128;2023-02-13T19:09:31;1.70;99.90
6377;DHT22;3221;48.858;10.128;2023-02-13T19:11:58;1.70;99.90
6377;DHT22;3221;48.858;10.128;2023-02-13T19:14:25;1.70;99.90